Bookmark and Share
Track history (hours):
 

Aegean Viii

Last reported at 2014-Apr-24 08:15 UTC. Time now 2014-Apr-24 09:31 UTC.
Position N 38°02' E 023°32'.

Length 12 m; draft 4.2 m.

Type: Tanker. MMSI: 240732000.

NotesDate/timePositionNaut miles runAvg speedWind from/ knotsBaromVisibWave heightAir tempDewpointWater temp
2014-Apr-24 08:15N 38°02' E 023°32'0 0.0
2014-Apr-24 07:29N 38°02' E 023°32'0 0.0
2014-Apr-24 06:23N 38°02' E 023°32'0 0.0
2014-Apr-23 21:20N 38°02' E 023°32'0 0.0
2014-Apr-23 20:26N 38°02' E 023°32'7 7.6
2014-Apr-23 19:33N 37°56' E 023°34'4 4.2
2014-Apr-23 18:33N 37°53' E 023°31'0 0.2
2014-Apr-23 17:33N 37°53' E 023°31'0 0.1
2014-Apr-23 16:33N 37°53' E 023°31'0 0.1
2014-Apr-23 15:33N 37°53' E 023°31'0 0.2
2014-Apr-23 14:33N 37°53' E 023°31'0 0.0
2014-Apr-23 13:33N 37°53' E 023°31'1 0.8
2014-Apr-23 12:33N 37°52' E 023°31'0 0.0
2014-Apr-23 11:33N 37°52' E 023°31'0 0.0
2014-Apr-23 10:33N 37°52' E 023°31'0 0.0
2014-Apr-23 09:33N 37°52' E 023°31'0 0.0
2014-Apr-23 08:33N 37°52' E 023°31'0 0.0
2014-Apr-23 07:33N 37°52' E 023°31'0 0.0
2014-Apr-23 06:33N 37°52' E 023°31'0 0.1
2014-Apr-23 05:33N 37°52' E 023°31'9 7.0
2014-Apr-23 04:18N 38°01' E 023°33'2 2.1
2014-Apr-23 03:32N 38°02' E 023°32'0 0.0
2014-Apr-23 02:27N 38°02' E 023°32'0 0.0
2014-Apr-23 01:23N 38°02' E 023°32'0 0.0
2014-Apr-23 00:33N 38°02' E 023°32'0 0.0
2014-Apr-22 23:29N 38°02' E 023°32'1 0.6
2014-Apr-22 22:27N 38°02' E 023°33'2 1.8
2014-Apr-22 21:04N 38°02' E 023°36'0 0.0
2014-Apr-22 19:27N 38°02' E 023°36'0 0.0
2014-Apr-22 16:09N 38°02' E 023°36'0 0.1
2014-Apr-22 15:09N 38°02' E 023°36'1 0.5
2014-Apr-22 13:31N 38°02' E 023°35'1 0.5
2014-Apr-22 11:23N 38°02' E 023°33'1 1.2
2014-Apr-22 10:25N 38°02' E 023°32'7 7.9
2014-Apr-22 09:33N 37°56' E 023°37'1 1.1
2014-Apr-22 08:33N 37°56' E 023°38'0 0.0
2014-Apr-22 07:33N 37°56' E 023°38'0 0.0
2014-Apr-22 06:33N 37°56' E 023°38'1 1.4
2014-Apr-22 05:33N 37°57' E 023°36'7 6.5
2014-Apr-22 04:32N 38°02' E 023°32'0 0.0
2014-Apr-22 03:24N 38°02' E 023°32'0 0.0
2014-Apr-22 02:33N 38°02' E 023°32'0 0.0
2014-Apr-22 01:33N 38°02' E 023°32'0 0.0
2014-Apr-21 23:33N 38°02' E 023°32'0 0.0
2014-Apr-21 22:28N 38°02' E 023°32'4 0.4
2014-Apr-21 12:05N 37°58' E 023°33'4 7.9
2014-Apr-21 11:33N 37°54' E 023°33'3 2.9
2014-Apr-21 10:28N 37°51' E 023°32'1 1.3
2014-Apr-21 09:33N 37°52' E 023°33'2 2.1
2014-Apr-21 08:33N 37°54' E 023°33'0 0.0
2014-Apr-21 07:33N 37°54' E 023°33'0 0.5
2014-Apr-21 06:33N 37°54' E 023°33'7 6.5
2014-Apr-21 05:26N 38°02' E 023°31'0 0.1
2014-Apr-21 04:20N 38°02' E 023°31'1 0.9
2014-Apr-21 03:22N 38°02' E 023°32'0 0.0
2014-Apr-21 02:23N 38°02' E 023°32'0 0.0
2014-Apr-21 01:27N 38°02' E 023°32'0 0.0
2014-Apr-21 00:23N 38°02' E 023°32'0 0.0
2014-Apr-20 23:32N 38°02' E 023°32'0 0.0
2014-Apr-20 22:33N 38°02' E 023°32'0 0.0
2014-Apr-20 21:26N 38°02' E 023°32'0 0.0
2014-Apr-20 20:27N 38°02' E 023°32'0 0.0
2014-Apr-20 19:19N 38°02' E 023°32'2 0.1
2014-Apr-18 21:18N 38°02' E 023°35'0 0.1
2014-Apr-18 20:31N 38°02' E 023°35'2 2.2
2014-Apr-18 19:28N 38°02' E 023°32'0 0.0
2014-Apr-18 07:11N 38°02' E 023°32'0 0.3
2014-Apr-18 06:29N 38°02' E 023°32'0 0.0
2014-Apr-18 05:33N 38°02' E 023°32'0 0.0
2014-Apr-18 04:22N 38°02' E 023°32'0 0.1
2014-Apr-18 02:28N 38°02' E 023°32'0 0.0
2014-Apr-17 14:22N 38°02' E 023°32'0 0.0
2014-Apr-17 13:21N 38°02' E 023°32'6 7.2
2014-Apr-17 12:34N 37°57' E 023°35'2 2.3
2014-Apr-17 11:33N 37°55' E 023°34'0 0.0
2014-Apr-17 10:33N 37°55' E 023°34'4 3.7
2014-Apr-17 09:33N 37°56' E 023°38'0 0.0
2014-Apr-17 08:34N 37°56' E 023°38'0 0.0
2014-Apr-17 07:33N 37°56' E 023°38'0 0.0
2014-Apr-17 06:33N 37°56' E 023°38'1 0.6
2014-Apr-17 05:34N 37°56' E 023°37'6 5.3
2014-Apr-17 04:22N 38°01' E 023°32'1 1.1
2014-Apr-17 03:26N 38°02' E 023°32'0 0.0
2014-Apr-16 18:15N 38°02' E 023°32'0 0.0
2014-Apr-16 17:32N 38°02' E 023°32'0 0.0
2014-Apr-16 16:24N 38°02' E 023°32'0 0.0
2014-Apr-16 15:32N 38°02' E 023°32'0 0.0
2014-Apr-16 14:30N 38°02' E 023°32'0 0.0
2014-Apr-16 13:21N 38°02' E 023°32'0 0.0
2014-Apr-16 12:27N 38°02' E 023°32'0 0.0
2014-Apr-16 11:33N 38°02' E 023°32'0 0.0
2014-Apr-16 04:23N 38°02' E 023°32'6 7.0
2014-Apr-16 03:33N 37°57' E 023°35'6 5.8
2014-Apr-16 02:29N 37°51' E 023°32'0 0.2
2014-Apr-16 01:33N 37°51' E 023°32'0 0.1
2014-Apr-16 00:33N 37°51' E 023°32'0 0.1
2014-Apr-15 23:33N 37°51' E 023°32'1 0.9
2014-Apr-15 22:32N 37°52' E 023°33'3 3.3
2014-Apr-15 21:33N 37°55' E 023°34'2 2.4
2014-Apr-15 20:33N 37°57' E 023°35'0 0.1
2014-Apr-15 19:33N 37°57' E 023°35'0 0.0
2014-Apr-15 18:33N 37°57' E 023°35'0 0.0
2014-Apr-15 17:33N 37°57' E 023°35'2 1.7
2014-Apr-15 16:33N 37°58' E 023°33'4 2.0
2014-Apr-15 14:19N 38°02' E 023°36'0 0.0
2014-Apr-15 12:31N 38°02' E 023°36'0 0.0
2014-Apr-15 09:31N 38°02' E 023°36'0 0.0
2014-Apr-15 08:33N 38°02' E 023°36'3 0.1
2014-Apr-14 08:32N 38°02' E 023°32'  

Dump ship's entire track history

sailing weather and tide predictions

Aegean Viii — SXKO — position and weather